Time;durP1;ratioP1;P1;durP2;ratioP2;P2;SDS_P1;SDS_P2;PMS_P1;PMS_P2;Temp;Humidity;BMP_temperature;BMP_pressure;BME280_temperature;BME280_humidity;BME280_pressure;Samples;Min_cycle;Max_cycle;Signal;HPM_P1;HPM_P2
2023/07/11 04:22:33;;;;;;;4.40;2.53;;;;;;;17.08;100.00;100266.53;5089555;28;20401;-61
2023/07/11 04:24:58;;;;;;;3.28;2.50;;;;;;;17.11;100.00;100259.06;5089414;28;20043;-63
2023/07/11 04:27:25;;;;;;;3.90;2.75;;;;;;;17.09;100.00;100262.78;5089366;28;20062;-62
2023/07/11 04:29:51;;;;;;;3.10;2.60;;;;;;;17.13;100.00;100257.78;5088996;28;20111;-63
2023/07/11 04:32:16;;;;;;;4.60;3.05;;;;;;;17.19;100.00;100262.31;5089391;28;20554;-63
2023/07/11 04:34:42;;;;;;;4.13;2.70;;;;;;;17.22;100.00;100261.06;5089326;28;20040;-63
2023/07/11 04:37:07;;;;;;;5.65;4.05;;;;;;;17.28;100.00;100266.41;5089230;28;20104;-60
2023/07/11 04:39:33;;;;;;;6.22;3.60;;;;;;;17.35;100.00;100269.06;5088883;28;20076;-60
2023/07/11 04:41:58;;;;;;;4.03;3.10;;;;;;;17.39;100.00;100267.56;5089083;28;20086;-61
2023/07/11 04:44:24;;;;;;;4.88;2.90;;;;;;;17.48;100.00;100281.63;5087758;28;20586;-61
2023/07/11 04:46:49;;;;;;;5.30;3.70;;;;;;;17.55;100.00;100277.81;5087796;28;20093;-61
2023/07/11 04:49:14;;;;;;;6.22;3.92;;;;;;;17.63;100.00;100276.72;5088666;28;20055;-61
2023/07/11 04:51:40;;;;;;;5.47;3.85;;;;;;;17.71;100.00;100276.50;5089031;28;20040;-61
2023/07/11 04:54:05;;;;;;;5.25;3.53;;;;;;;17.80;100.00;100275.19;5088788;28;20107;-61
2023/07/11 04:56:31;;;;;;;6.07;4.25;;;;;;;17.86;100.00;100268.91;5088853;28;20135;-62
2023/07/11 04:58:59;;;;;;;6.63;3.10;;;;;;;17.94;100.00;100273.22;5088396;28;20036;-62
2023/07/11 05:01:24;;;;;;;3.80;2.78;;;;;;;18.01;100.00;100268.59;5088737;28;20048;-62
2023/07/11 05:03:49;;;;;;;4.95;3.20;;;;;;;18.09;100.00;100267.47;5087500;28;20044;-62
2023/07/11 05:06:15;;;;;;;6.40;3.58;;;;;;;18.17;100.00;100259.91;5088614;28;20120;-62
2023/07/11 05:08:40;;;;;;;4.22;3.00;;;;;;;18.26;100.00;100251.56;5088409;28;20028;-62
2023/07/11 05:11:11;;;;;;;3.65;2.88;;;;;;;18.34;100.00;100259.34;5088555;28;20594;-63
2023/07/11 05:13:36;;;;;;;4.55;2.95;;;;;;;18.41;100.00;100254.69;5088561;28;20032;-63
2023/07/11 05:16:08;;;;;;;5.03;3.15;;;;;;;18.55;100.00;100263.47;5088451;28;20081;-62
2023/07/11 05:18:40;;;;;;;4.38;3.15;;;;;;;18.64;96.74;100265.63;5088444;28;20452;-62
2023/07/11 05:21:10;;;;;;;3.85;2.67;;;;;;;18.71;95.83;100260.19;5084998;28;20043;-62
2023/07/11 05:23:37;;;;;;;4.65;3.05;;;;;;;18.80;95.90;100264.22;5088467;28;20028;-63
2023/07/11 05:26:03;;;;;;;5.15;3.30;;;;;;;18.89;96.02;100262.03;5088269;28;20028;-61
2023/07/11 05:28:29;;;;;;;4.25;3.03;;;;;;;18.96;96.15;100262.78;5088084;28;20527;-62
2023/07/11 05:30:56;;;;;;;3.67;2.70;;;;;;;19.02;95.99;100259.16;5088155;28;20048;-62
2023/07/11 05:33:22;;;;;;;4.38;3.05;;;;;;;19.08;92.10;100260.13;5077921;28;20119;-63
2023/07/11 05:36:25;;;;;;;4.47;2.45;;;;;;;19.15;92.63;100255.47;5064401;28;20045;-61
2023/07/11 05:38:54;;;;;;;3.10;2.42;;;;;;;19.24;92.29;100246.81;5054364;28;20037;-62
2023/07/11 05:41:19;;;;;;;3.53;2.50;;;;;;;19.32;90.99;100244.84;5053293;28;20048;-61
2023/07/11 05:43:45;;;;;;;3.20;2.30;;;;;;;19.38;91.39;100243.94;5054593;28;20060;-61
2023/07/11 05:46:11;;;;;;;3.20;2.30;;;;;;;19.48;91.06;100246.88;5054344;28;20056;-62
2023/07/11 05:48:36;;;;;;;5.88;2.53;;;;;;;19.55;90.97;100252.16;5054108;28;20033;-61
2023/07/11 05:51:10;;;;;;;4.13;2.75;;;;;;;19.58;90.45;100239.06;5054277;28;20498;-63
2023/07/11 05:53:35;;;;;;;3.38;2.70;;;;;;;19.66;90.01;100243.31;5054452;28;20033;-62
2023/07/11 05:56:01;;;;;;;3.70;2.83;;;;;;;19.77;87.70;100243.31;5054158;28;20090;-61
2023/07/11 05:58:28;;;;;;;3.63;2.25;;;;;;;19.86;87.38;100229.47;5054046;28;20049;-61
2023/07/11 06:00:55;;;;;;;4.70;2.85;;;;;;;19.95;86.88;100226.19;5054139;28;20033;-62
2023/07/11 06:03:22;;;;;;;3.97;2.55;;;;;;;20.02;87.44;100226.06;5054261;28;20139;-62
2023/07/11 06:05:48;;;;;;;;;;;;;;;20.13;87.47;100229.81;5054437;28;20033;-62
2023/07/11 06:08:13;;;;;;;3.50;2.47;;;;;;;20.23;87.56;100227.34;5054073;28;19923;-61
2023/07/11 06:10:39;;;;;;;3.75;2.67;;;;;;;20.47;89.40;100225.44;5052606;28;20037;-62
2023/07/11 06:13:05;;;;;;;3.53;2.67;;;;;;;20.61;86.92;100224.13;5054067;28;20493;-62
2023/07/11 06:15:30;;;;;;;3.10;2.50;;;;;;;20.67;85.93;100217.75;5053879;28;20037;-60
2023/07/11 06:17:56;;;;;;;3.90;2.80;;;;;;;20.73;86.94;100216.75;5053931;28;20087;-62
2023/07/11 06:20:22;;;;;;;4.13;2.92;;;;;;;20.80;86.94;100217.47;5053338;28;20500;-60
2023/07/11 06:22:48;;;;;;;4.88;2.60;;;;;;;20.90;87.37;100216.00;5053906;28;20045;-59
2023/07/11 06:25:13;;;;;;;4.18;2.33;;;;;;;20.99;86.98;100212.66;5053659;28;20036;-61
2023/07/11 06:27:38;;;;;;;4.53;2.78;;;;;;;21.07;84.70;100215.00;5053684;28;20044;-61
2023/07/11 06:30:04;;;;;;;4.07;2.58;;;;;;;21.13;86.01;100215.91;5053292;28;20044;-62
2023/07/11 06:32:30;;;;;;;3.63;2.50;;;;;;;21.24;84.73;100217.72;5053556;28;20040;-62
2023/07/11 06:34:55;;;;;;;2.50;2.10;;;;;;;21.32;83.33;100214.66;5053220;28;20041;-61
2023/07/11 06:37:20;;;;;;;3.75;2.50;;;;;;;21.50;78.44;100215.47;5053369;28;20143;-61
2023/07/11 06:39:46;;;;;;;4.03;2.47;;;;;;;21.60;78.21;100218.38;5052152;28;20120;-62
2023/07/11 06:42:12;;;;;;;3.45;2.40;;;;;;;21.72;75.52;100226.44;5053339;28;20066;-62
2023/07/11 06:44:37;;;;;;;4.47;2.80;;;;;;;21.77;76.71;100218.34;5052426;28;20492;-62
2023/07/11 06:47:03;;;;;;;4.70;2.53;;;;;;;21.88;74.16;100214.75;5051818;28;20084;-61
2023/07/11 06:49:29;;;;;;;6.32;2.60;;;;;;;21.93;75.72;100215.63;5053178;28;20041;-62
2023/07/11 06:51:54;;;;;;;4.40;2.72;;;;;;;22.10;73.88;100212.91;5053015;28;20033;-62
2023/07/11 06:54:19;;;;;;;4.45;2.90;;;;;;;22.21;71.89;100211.16;5053223;28;20190;-61
2023/07/11 06:56:45;;;;;;;2.95;2.20;;;;;;;22.42;69.16;100210.38;5053077;28;20512;-61
2023/07/11 06:59:19;;;;;;;4.75;2.65;;;;;;;22.41;72.31;100203.28;5052723;28;20050;-61
2023/07/11 07:01:45;;;;;;;4.32;2.50;;;;;;;22.46;72.97;100208.78;5053079;28;20418;-62
2023/07/11 07:04:11;;;;;;;3.38;2.38;;;;;;;22.51;73.52;100212.66;5053060;28;20377;-62
2023/07/11 07:06:37;;;;;;;5.40;2.25;;;;;;;22.60;72.94;100202.97;5052953;28;20044;-62
2023/07/11 07:09:03;;;;;;;3.47;2.58;;;;;;;22.65;73.95;100198.44;5052694;28;20534;-60
2023/07/11 07:11:29;;;;;;;3.72;2.80;;;;;;;22.85;70.63;100199.75;5052789;28;20040;-62
2023/07/11 07:13:54;;;;;;;3.10;2.35;;;;;;;22.92;69.80;100190.34;5052859;28;20398;-61
2023/07/11 07:16:19;;;;;;;5.88;2.65;;;;;;;23.04;68.54;100192.09;5052688;28;20078;-63
2023/07/11 07:18:45;;;;;;;3.78;2.85;;;;;;;23.18;68.39;100201.47;5052531;28;20093;-60
2023/07/11 07:21:10;;;;;;;3.35;2.45;;;;;;;23.30;67.57;100193.97;5052595;28;20443;-60
2023/07/11 07:23:36;;;;;;;3.70;2.85;;;;;;;23.39;68.38;100197.84;5052807;28;20104;-59
2023/07/11 07:26:03;;;;;;;2.78;2.40;;;;;;;23.42;68.24;100191.91;5052593;28;20051;-58
2023/07/11 07:28:30;;;;;;;3.35;2.67;;;;;;;23.44;70.32;100186.22;5052378;28;20108;-59
2023/07/11 07:30:56;;;;;;;2.95;2.63;;;;;;;23.53;68.30;100185.44;5052643;28;20383;-59
2023/07/11 07:33:24;;;;;;;3.17;2.60;;;;;;;23.79;66.03;100191.94;5052616;28;20033;-58
2023/07/11 07:35:54;;;;;;;3.33;2.65;;;;;;;23.86;67.51;100193.59;5052637;28;20124;-60
2023/07/11 07:38:20;;;;;;;6.47;3.85;;;;;;;24.02;68.01;100192.63;5052196;28;20033;-58
2023/07/11 07:40:51;;;;;;;3.70;2.70;;;;;;;24.12;66.43;100183.69;5052367;28;20041;-60
2023/07/11 07:43:16;;;;;;;3.72;2.72;;;;;;;24.20;66.98;100186.75;5051982;28;20047;-59
2023/07/11 07:45:42;;;;;;;3.55;2.33;;;;;;;24.25;66.56;100172.31;5051946;28;20025;-59
2023/07/11 07:48:07;;;;;;;3.92;2.50;;;;;;;24.38;64.01;100177.31;5051740;28;20091;-59
2023/07/11 07:50:32;;;;;;;3.67;2.53;;;;;;;24.51;67.16;100185.00;5051676;28;20512;-59
2023/07/11 07:52:58;;;;;;;3.33;2.17;;;;;;;24.61;63.22;100176.88;5051797;28;20037;-59
2023/07/11 07:55:23;;;;;;;3.63;3.05;;;;;;;24.73;64.06;100173.09;5051537;28;20375;-60
2023/07/11 07:57:49;;;;;;;3.38;2.55;;;;;;;24.94;60.78;100174.75;5051849;28;20051;-60
2023/07/11 08:00:14;;;;;;;3.40;2.17;;;;;;;25.29;55.33;100181.38;5051689;28;20071;-59
2023/07/11 08:02:48;;;;;;;4.88;2.95;;;;;;;25.34;56.43;100174.00;5052073;28;20128;-58
2023/07/11 08:05:14;;;;;;;3.80;2.92;;;;;;;25.39;58.97;100175.94;5051665;28;20047;-60
2023/07/11 08:07:39;;;;;;;3.95;2.40;;;;;;;25.68;58.32;100168.00;5051889;28;20037;-58
2023/07/11 08:10:05;;;;;;;3.40;2.50;;;;;;;25.68;57.29;100174.25;5051723;28;20051;-57
2023/07/11 08:12:30;;;;;;;3.15;2.33;;;;;;;25.69;57.92;100175.91;5051743;28;20032;-56
2023/07/11 08:14:56;;;;;;;4.18;2.70;;;;;;;25.66;60.11;100170.19;5051818;28;20482;-57
2023/07/11 08:17:21;;;;;;;3.45;2.42;;;;;;;25.68;60.69;100168.00;5068211;28;20097;-59
2023/07/11 08:19:47;;;;;;;4.55;3.20;;;;;;;25.87;60.67;100160.06;5071683;28;20040;-60
2023/07/11 08:22:12;;;;;;;3.33;2.90;;;;;;;25.91;60.88;100155.72;5071650;28;20043;-59
2023/07/11 08:24:38;;;;;;;3.42;2.75;;;;;;;26.25;58.92;100151.22;5071621;28;20087;-61
2023/07/11 08:27:03;;;;;;;4.20;2.88;;;;;;;26.35;59.09;100147.66;5071372;28;20094;-62
2023/07/11 08:29:29;;;;;;;3.17;2.75;;;;;;;26.48;59.27;100147.06;5071290;28;20040;-60
2023/07/11 08:31:55;;;;;;;3.55;2.80;;;;;;;26.56;57.48;100145.66;5071627;28;20124;-62
2023/07/11 08:34:20;;;;;;;4.45;3.00;;;;;;;26.67;55.16;100143.66;5071642;28;20417;-62
2023/07/11 08:36:46;;;;;;;3.45;2.60;;;;;;;26.76;54.53;100133.78;5071669;28;20040;-61
2023/07/11 08:39:12;;;;;;;4.18;3.10;;;;;;;26.86;56.83;100139.16;5071396;28;20443;-62
2023/07/11 08:41:51;;;;;;;4.72;3.08;;;;;;;27.04;56.05;100137.69;5071676;28;20044;-62
2023/07/11 08:44:23;;;;;;;3.40;2.88;;;;;;;27.15;57.65;100133.00;5071606;28;20401;-62
2023/07/11 08:47:03;;;;;;;4.20;3.40;;;;;;;27.35;55.69;100140.22;5071592;28;20086;-62
2023/07/11 08:49:51;;;;;;;4.53;2.92;;;;;;;27.53;55.10;100136.78;5071251;28;20046;-62
2023/07/11 08:52:18;;;;;;;4.47;2.88;;;;;;;27.68;54.99;100130.31;5070925;28;20048;-62
2023/07/11 08:54:56;;;;;;;4.28;3.13;;;;;;;27.73;54.14;100114.72;5071598;28;20037;-61
2023/07/11 08:57:23;;;;;;;3.80;2.92;;;;;;;27.93;53.64;100118.31;5071345;28;20032;-61
2023/07/11 08:59:57;;;;;;;3.92;3.20;;;;;;;28.00;52.75;100108.66;5071155;28;20060;-62
2023/07/11 09:02:56;;;;;;;4.35;3.05;;;;;;;28.19;53.91;100105.94;5071521;28;20086;-61
2023/07/11 09:05:34;;;;;;;3.72;3.05;;;;;;;28.29;51.71;100105.81;5054030;28;20509;-60
2023/07/11 09:07:59;;;;;;;6.00;3.22;;;;;;;28.56;50.21;100099.72;5072944;28;20028;-61
2023/07/11 09:11:01;;;;;;;4.35;3.38;;;;;;;28.81;51.21;100095.78;5074763;28;20623;-61
2023/07/11 09:13:46;;;;;;;4.20;3.47;;;;;;;29.16;53.04;100096.34;5075006;28;20557;-62
2023/07/11 09:16:42;;;;;;;5.53;3.63;;;;;;;29.41;46.76;100092.34;5074966;28;20409;-62
2023/07/11 09:19:24;;;;;;;4.88;3.60;;;;;;;29.58;47.34;100089.03;5074749;28;20111;-62
2023/07/11 09:21:53;;;;;;;4.43;3.45;;;;;;;29.61;47.37;100086.50;5074937;28;20543;-61
2023/07/11 09:24:40;;;;;;;5.75;3.40;;;;;;;29.73;46.33;100083.25;5074862;28;20493;-62
2023/07/11 09:27:19;;;;;;;4.78;3.38;;;;;;;29.80;45.93;100074.59;5074832;28;20036;-61
2023/07/11 09:29:47;;;;;;;4.10;3.30;;;;;;;29.92;47.24;100075.72;5074481;28;20039;-61
2023/07/11 09:32:13;;;;;;;5.38;3.40;;;;;;;30.18;45.65;100072.47;5074724;28;20435;-60
2023/07/11 09:34:44;;;;;;;5.00;3.90;;;;;;;30.24;47.59;100065.75;5074764;28;20116;-62
2023/07/11 09:37:34;;;;;;;3.92;3.20;;;;;;;30.54;46.24;100067.00;5074638;28;20110;-61
2023/07/11 09:40:11;;;;;;;5.10;3.50;;;;;;;31.07;46.23;100067.09;5074314;28;20042;-62
2023/07/11 09:42:48;;;;;;;5.68;3.60;;;;;;;31.11;45.97;100059.03;5074710;28;20420;-61
2023/07/11 09:45:16;;;;;;;5.15;3.35;;;;;;;31.20;45.50;100059.88;5074437;28;20032;-61
2023/07/11 09:47:47;;;;;;;5.72;3.35;;;;;;;31.54;43.57;100063.97;5074496;28;20047;-61
2023/07/11 09:50:27;;;;;;;5.72;3.90;;;;;;;31.70;42.33;100056.09;5074163;28;20115;-61
2023/07/11 09:52:57;;;;;;;4.13;3.40;;;;;;;31.73;41.63;100052.69;5074367;28;20110;-62
2023/07/11 09:55:25;;;;;;;4.88;3.80;;;;;;;31.93;44.05;100048.56;5074224;28;20050;-62
2023/07/11 09:57:51;;;;;;;5.07;3.53;;;;;;;32.22;42.53;100053.50;5074455;28;20426;-62
2023/07/11 10:00:17;;;;;;;5.73;3.77;;;;;;;32.54;42.43;100050.31;5073981;28;20075;-61
2023/07/11 10:02:49;;;;;;;6.28;3.65;;;;;;;32.87;41.32;100045.13;5064658;28;20389;-62
2023/07/11 10:05:22;;;;;;;5.25;4.05;;;;;;;33.06;41.40;100042.00;5044690;28;20032;-62
2023/07/11 10:08:12;;;;;;;5.75;3.83;;;;;;;32.89;39.37;100044.78;5062452;28;20099;-60
2023/07/11 10:10:45;;;;;;;5.22;3.78;;;;;;;33.08;40.96;100036.16;5063278;28;20040;-61
2023/07/11 10:13:13;;;;;;;6.57;3.47;;;;;;;33.50;41.36;100034.41;5062808;28;20060;-62
2023/07/11 10:15:40;;;;;;;5.13;3.60;;;;;;;33.70;40.27;100039.16;5060543;28;20059;-62
2023/07/11 10:18:15;;;;;;;5.72;3.92;;;;;;;33.91;40.12;100038.47;5063598;28;20032;-64
2023/07/11 10:20:45;;;;;;;5.47;3.85;;;;;;;34.23;37.78;100021.16;5073119;28;20448;-59
2023/07/11 10:23:13;;;;;;;7.22;4.50;;;;;;;34.59;38.46;100018.94;5074020;28;20040;-62
2023/07/11 10:25:43;;;;;;;5.93;3.75;;;;;;;34.82;38.99;100022.91;5073700;28;20500;-63
2023/07/11 10:28:23;;;;;;;7.28;4.50;;;;;;;35.18;37.93;100024.22;5073756;28;20720;-62
2023/07/11 10:30:50;;;;;;;5.10;3.95;;;;;;;34.79;37.35;100018.88;5073638;28;20082;-63
2023/07/11 10:33:19;;;;;;;;;;;;;;;35.57;36.76;100018.03;5074182;28;20031;-62
2023/07/11 10:35:50;;;;;;;5.55;3.90;;;;;;;35.65;36.66;100010.75;5073640;28;20014;-64
2023/07/11 10:38:21;;;;;;;4.68;4.00;;;;;;;35.60;35.83;100010.97;5073440;28;20386;-63
2023/07/11 10:40:49;;;;;;;5.88;3.75;;;;;;;35.79;36.24;100007.63;5073456;28;20039;-63
2023/07/11 10:43:26;;;;;;;7.95;4.25;;;;;;;36.09;36.99;99997.91;5073518;28;20063;-63
2023/07/11 10:46:00;;;;;;;5.53;4.00;;;;;;;35.97;35.77;99997.94;5073311;28;20101;-63
2023/07/11 10:48:30;;;;;;;5.80;3.95;;;;;;;36.26;36.52;99994.06;5073120;28;20037;-63
2023/07/11 10:51:01;;;;;;;5.45;4.18;;;;;;;36.39;33.46;99987.34;5073080;28;20040;-63
2023/07/11 10:53:34;;;;;;;5.47;3.75;;;;;;;36.87;34.08;99981.94;5073220;28;20041;-63
2023/07/11 10:56:09;;;;;;;5.30;4.00;;;;;;;37.03;35.95;99984.69;5073192;28;20040;-63
2023/07/11 10:58:34;;;;;;;5.63;4.07;;;;;;;37.04;31.89;99983.53;5072930;28;20558;-63
2023/07/11 11:01:28;;;;;;;5.43;3.87;;;;;;;37.24;33.97;99982.50;5073064;28;20041;-63
2023/07/11 11:04:06;;;;;;;7.43;4.15;;;;;;;37.22;33.83;99979.25;5073086;28;20031;-63
2023/07/11 11:06:36;;;;;;;5.03;4.32;;;;;;;37.58;33.46;99972.63;5072988;28;20041;-62
2023/07/11 11:09:11;;;;;;;6.13;4.57;;;;;;;37.44;33.46;99967.53;5072729;28;20040;-63
2023/07/11 11:11:51;;;;;;;5.45;4.20;;;;;;;37.89;33.74;99962.63;5072688;28;20036;-64
2023/07/11 11:14:25;;;;;;;5.72;4.22;;;;;;;37.61;33.05;99951.63;5072930;28;20473;-63
2023/07/11 11:17:00;;;;;;;5.07;4.05;;;;;;;37.93;32.48;99944.84;5072902;28;20031;-62
2023/07/11 11:20:17;;;;;;;6.18;4.57;;;;;;;38.35;31.57;99937.78;5072373;28;20043;-62
2023/07/11 11:22:51;;;;;;;6.22;4.00;;;;;;;38.39;33.30;99945.00;5067163;28;20143;-62
2023/07/11 11:25:22;;;;;;;6.90;4.68;;;;;;;38.86;31.75;99937.53;5072679;28;20089;-62
2023/07/11 11:28:09;;;;;;;7.72;3.88;;;;;;;38.18;32.49;99934.25;5072649;28;20123;-62
2023/07/11 11:30:54;;;;;;;7.07;4.32;;;;;;;38.79;31.64;99927.88;5071687;28;20123;-62
2023/07/11 11:33:38;;;;;;;6.95;4.60;;;;;;;38.83;31.79;99925.19;5072569;28;20029;-62
2023/07/11 11:36:20;;;;;;;7.28;4.50;;;;;;;39.13;30.90;99918.94;5072394;28;20097;-62
2023/07/11 11:38:54;;;;;;;6.13;4.57;;;;;;;39.20;32.22;99913.50;5072146;28;20043;-63
2023/07/11 11:41:36;;;;;;;7.15;4.65;;;;;;;38.73;31.42;99911.88;5072448;28;20040;-63
2023/07/11 11:44:09;;;;;;;8.85;5.35;;;;;;;38.71;30.95;99903.91;5072433;28;20036;-63
2023/07/11 11:46:35;;;;;;;5.60;4.70;;;;;;;39.07;30.84;99902.53;5072651;28;20044;-63
2023/07/11 11:49:03;;;;;;;5.90;4.20;;;;;;;39.45;30.08;99900.75;5071987;28;20035;-62
2023/07/11 11:51:29;;;;;;;5.85;4.45;;;;;;;39.40;29.34;99897.47;5072162;28;20044;-63
2023/07/11 11:54:04;;;;;;;7.07;4.53;;;;;;;39.09;29.56;99897.38;5072265;28;20045;-64
2023/07/11 11:56:29;;;;;;;9.02;5.10;;;;;;;39.35;31.12;99893.81;5072241;28;20048;-64
2023/07/11 11:59:06;;;;;;;8.75;4.88;;;;;;;39.69;31.33;99896.72;5071995;28;20052;-64
2023/07/11 12:01:57;;;;;;;6.05;4.60;;;;;;;39.59;31.33;99889.81;5072149;28;20112;-63
2023/07/11 12:04:29;;;;;;;5.97;4.68;;;;;;;39.67;29.44;99887.13;5066380;28;20040;-63
2023/07/11 12:07:23;;;;;;;6.47;5.05;;;;;;;39.71;31.00;99883.19;5066431;28;20024;-64
2023/07/11 12:10:04;;;;;;;6.60;5.22;;;;;;;39.91;29.84;99877.47;5054865;28;20044;-63
2023/07/11 12:12:32;;;;;;;7.05;5.10;;;;;;;39.71;30.45;99883.19;5061426;28;20040;-63
2023/07/11 12:15:00;;;;;;;7.50;5.30;;;;;;;39.57;29.82;99877.41;5060719;28;20036;-62
2023/07/11 12:17:31;;;;;;;7.55;5.20;;;;;;;39.81;31.33;99860.25;5062022;28;20077;-63
2023/07/11 12:20:08;;;;;;;7.25;4.95;;;;;;;40.08;29.97;99860.97;5062109;28;20436;-63
2023/07/11 12:22:37;;;;;;;8.85;4.97;;;;;;;40.19;30.31;99868.66;5061898;28;20037;-62
2023/07/11 12:25:05;;;;;;;7.07;5.25;;;;;;;40.37;31.01;99866.88;5060391;28;20389;-62
2023/07/11 12:27:31;;;;;;;7.80;4.90;;;;;;;40.53;29.76;99849.91;5061467;28;20036;-63
2023/07/11 12:29:57;;;;;;;8.07;5.70;;;;;;;40.75;29.58;99853.66;5062004;28;20036;-61
2023/07/11 12:32:31;;;;;;;;;;;;;;;40.72;29.60;99855.25;5060661;28;20131;-63
2023/07/11 12:35:02;;;;;;;6.43;5.00;;;;;;;41.03;29.76;99851.13;5060657;28;20416;-63
2023/07/11 12:37:31;;;;;;;6.25;5.00;;;;;;;40.65;28.62;99850.41;5060890;28;20032;-63
2023/07/11 12:40:14;;;;;;;9.35;5.10;;;;;;;40.65;28.87;99838.44;5060221;28;20512;-63
2023/07/11 12:42:45;;;;;;;7.78;5.22;;;;;;;40.44;29.97;99841.81;5063263;28;20035;-63
2023/07/11 12:45:16;;;;;;;7.47;5.60;;;;;;;39.91;28.75;99828.13;5064149;28;20616;-63
2023/07/11 12:47:43;;;;;;;9.07;5.28;;;;;;;40.61;30.27;99826.44;5064185;28;20039;-63
2023/07/11 12:50:19;;;;;;;7.78;4.82;;;;;;;40.89;28.62;99821.13;5065302;28;20485;-64
2023/07/11 12:52:55;;;;;;;6.38;5.20;;;;;;;41.02;28.53;99818.00;5065951;28;20036;-63
2023/07/11 12:55:20;;;;;;;9.10;5.57;;;;;;;40.91;29.35;99815.16;5066118;28;20033;-63
2023/07/11 12:57:46;;;;;;;10.43;4.97;;;;;;;41.17;28.18;99809.31;5064344;28;20029;-63
2023/07/11 13:00:21;;;;;;;6.37;5.57;;;;;;;41.29;28.69;99811.00;5064764;28;20040;-63
2023/07/11 13:02:50;;;;;;;;;;;;;;;41.11;27.47;99794.13;5064795;28;20303;-63
2023/07/11 13:05:15;;;;;;;7.75;5.22;;;;;;;40.63;28.68;99798.97;5064314;28;19916;-63
2023/07/11 13:07:41;;;;;;;7.93;5.45;;;;;;;40.98;28.46;99790.06;5065725;28;20094;-63
2023/07/11 13:10:33;;;;;;;;;;;;;;;41.32;28.10;99787.88;5064536;28;20028;-63
2023/07/11 13:12:58;;;;;;;8.45;5.78;;;;;;;41.54;26.99;99783.19;5059524;28;19978;-63
2023/07/11 13:15:24;;;;;;;8.85;6.40;;;;;;;41.19;28.69;99773.41;5065771;28;20428;-62
2023/07/11 13:17:50;;;;;;;;;;;;;;;40.96;29.23;99775.69;5064756;28;20037;-64
2023/07/11 13:20:24;;;;;;;8.85;5.93;;;;;;;40.62;28.63;99769.44;5063661;28;19958;-64
2023/07/11 13:22:50;;;;;;;9.35;5.80;;;;;;;40.38;30.17;99770.84;5064327;28;20033;-63
2023/07/11 13:25:21;;;;;;;10.40;5.78;;;;;;;40.12;29.65;99764.22;5063803;28;20028;-63
2023/07/11 13:27:47;;;;;;;9.43;6.07;;;;;;;39.95;29.83;99764.81;5065127;28;20040;-65
2023/07/11 13:30:34;;;;;;;11.65;6.35;;;;;;;39.01;30.76;99761.25;5064302;28;20037;-64
2023/07/11 13:33:04;;;;;;;7.25;5.93;;;;;;;38.87;31.55;99759.06;5065337;28;20040;-65
2023/07/11 13:35:29;;;;;;;10.30;6.10;;;;;;;38.49;33.12;99758.06;5063918;28;20060;-65
2023/07/11 13:37:54;;;;;;;10.10;6.43;;;;;;;37.93;31.70;99758.63;5063971;28;20063;-64
2023/07/11 13:40:40;;;;;;;7.17;5.70;;;;;;;37.68;31.38;99755.34;5065082;28;20031;-64
2023/07/11 13:43:20;;;;;;;10.82;6.05;;;;;;;37.43;32.38;99752.09;5063201;28;20093;-63
2023/07/11 13:45:46;;;;;;;11.30;6.28;;;;;;;37.65;32.59;99752.50;5068206;28;20493;-64
2023/07/11 13:48:25;;;;;;;9.80;6.17;;;;;;;37.45;33.60;99760.06;5071363;28;20041;-62
2023/07/11 13:51:24;;;;;;;10.75;5.80;;;;;;;37.19;34.31;99755.13;5074269;28;20298;-63
2023/07/11 13:53:54;;;;;;;9.48;6.30;;;;;;;37.19;34.10;99757.88;5039881;28;20050;-63
2023/07/11 13:56:19;;;;;;;10.82;6.03;;;;;;;37.08;33.41;99748.50;5074399;28;20051;-64
2023/07/11 13:58:46;;;;;;;13.03;6.03;;;;;;;37.22;34.32;99754.38;5074025;28;20048;-63
2023/07/11 14:01:22;;;;;;;9.05;5.80;;;;;;;36.99;34.97;99756.25;5074504;28;20398;-63
2023/07/11 14:03:49;;;;;;;8.55;5.78;;;;;;;36.81;33.06;99756.63;5074296;28;20045;-65
2023/07/11 14:06:16;;;;;;;8.98;6.32;;;;;;;36.66;33.70;99744.38;5073838;28;20028;-63
2023/07/11 14:08:43;;;;;;;8.27;6.35;;;;;;;36.77;34.42;99754.91;5073895;28;20068;-62
2023/07/11 14:11:29;;;;;;;9.48;5.60;;;;;;;36.70;34.25;99752.78;5073888;28;20037;-63
2023/07/11 14:13:55;;;;;;;11.77;6.57;;;;;;;36.73;35.29;99748.50;5073900;28;20382;-62
2023/07/11 14:16:21;;;;;;;11.32;6.38;;;;;;;36.65;34.32;99742.78;5072772;28;20572;-62
2023/07/11 14:18:48;;;;;;;8.80;6.35;;;;;;;36.66;33.57;99744.38;5073510;28;20060;-62
2023/07/11 14:21:16;;;;;;;9.95;5.45;;;;;;;36.58;34.29;99739.00;5073941;28;20033;-62
2023/07/11 14:23:42;;;;;;;9.32;6.25;;;;;;;36.44;33.73;99738.69;5073721;28;20063;-62
2023/07/11 14:26:07;;;;;;;9.02;5.82;;;;;;;36.41;33.96;99743.78;5073634;28;20075;-62
2023/07/11 14:28:33;;;;;;;8.93;5.80;;;;;;;36.20;33.79;99731.34;5073494;28;20029;-62
2023/07/11 14:31:01;;;;;;;10.03;5.83;;;;;;;36.25;34.23;99734.63;5073676;28;20033;-62
2023/07/11 14:33:32;;;;;;;7.97;6.18;;;;;;;36.25;33.37;99722.72;5073553;28;20041;-62
2023/07/11 14:35:57;;;;;;;10.27;6.65;;;;;;;36.15;34.11;99735.16;5073534;28;20086;-61
2023/07/11 14:38:24;;;;;;;8.57;6.10;;;;;;;36.21;34.36;99725.44;5073254;28;20037;-63
2023/07/11 14:40:51;;;;;;;;;;;;;;;36.32;34.06;99728.44;5073908;28;20028;-62
2023/07/11 14:43:19;;;;;;;9.38;6.60;;;;;;;36.33;34.26;99725.34;5073305;28;20006;-62
2023/07/11 14:45:44;;;;;;;11.48;7.32;;;;;;;36.26;33.40;99736.25;5072025;28;20040;-62
2023/07/11 14:48:15;;;;;;;10.93;6.90;;;;;;;36.09;33.30;99731.84;5073246;28;20040;-62
2023/07/11 14:50:42;;;;;;;8.90;6.15;;;;;;;36.10;33.56;99716.84;5073031;28;20032;-63
2023/07/11 14:53:38;;;;;;;9.65;6.45;;;;;;;35.81;33.23;99708.94;5073253;28;20035;-64
2023/07/11 14:56:04;;;;;;;;;;;;;;;35.77;33.74;99705.25;5072580;28;20541;-64
2023/07/11 14:58:30;;;;;;;8.52;5.95;;;;;;;35.88;34.09;99693.28;5072696;28;19967;-63
2023/07/11 15:00:56;;;;;;;8.63;6.40;;;;;;;35.83;33.27;99698.28;5073039;28;20064;-63
2023/07/11 15:03:26;;;;;;;11.25;6.82;;;;;;;35.83;34.07;99696.31;5072872;28;20106;-63
2023/07/11 15:05:52;;;;;;;12.05;6.93;;;;;;;35.90;33.35;99706.78;5072233;28;20119;-64
2023/07/11 15:08:23;;;;;;;8.00;5.93;;;;;;;35.84;33.42;99719.28;5072583;28;20375;-63
2023/07/11 15:10:52;;;;;;;11.57;6.30;;;;;;;35.74;33.17;99706.78;5072832;28;20044;-62
2023/07/11 15:13:18;;;;;;;12.65;7.05;;;;;;;35.82;33.48;99714.09;5072751;28;20126;-63
2023/07/11 15:15:43;;;;;;;10.30;6.50;;;;;;;35.74;33.80;99708.75;5072817;28;20049;-63
2023/07/11 15:18:17;;;;;;;10.37;6.70;;;;;;;35.67;33.82;99697.44;5071577;28;20043;-63
2023/07/11 15:20:43;;;;;;;10.40;6.53;;;;;;;35.54;34.70;99694.75;5072606;28;20032;-64
2023/07/11 15:23:10;;;;;;;13.10;6.80;;;;;;;35.49;34.08;99683.13;5072614;28;20115;-63
2023/07/11 15:25:37;;;;;;;10.15;6.07;;;;;;;35.45;34.26;99671.13;5072659;28;20040;-63
2023/07/11 15:28:12;;;;;;;;;;;;;;;35.34;35.44;99662.50;5072950;28;20034;-64
2023/07/11 15:30:41;;;;;;;10.13;6.38;;;;;;;35.32;35.38;99671.16;5072321;28;20361;-64
2023/07/11 15:33:30;;;;;;;19.80;11.95;;;;;;;35.25;35.19;99686.78;5072415;28;20033;-62
2023/07/11 15:35:59;;;;;;;12.55;7.72;;;;;;;35.12;34.84;99699.84;5072398;28;20032;-64
2023/07/11 15:38:24;;;;;;;12.60;6.90;;;;;;;34.97;35.59;99701.38;5072166;28;20072;-63
2023/07/11 15:40:51;;;;;;;9.93;7.00;;;;;;;34.87;35.48;99704.59;5072389;28;20068;-64
2023/07/11 15:43:29;;;;;;;11.48;7.10;;;;;;;34.68;37.12;99687.81;5072301;28;20477;-63
2023/07/11 15:45:56;;;;;;;10.23;6.90;;;;;;;34.53;36.78;99695.66;5072202;28;20052;-63
2023/07/11 15:48:22;;;;;;;8.60;6.40;;;;;;;34.41;36.79;99714.19;5072011;28;20127;-63
2023/07/11 15:50:49;;;;;;;9.25;6.13;;;;;;;34.21;37.63;99716.69;5072274;28;20028;-63
2023/07/11 15:53:15;;;;;;;8.00;5.22;;;;;;;33.66;39.86;99715.19;5072271;28;20041;-62
2023/07/11 15:55:41;;;;;;;11.60;6.60;;;;;;;33.32;41.01;99701.66;5072238;28;20047;-54
2023/07/11 15:58:18;;;;;;;11.80;7.10;;;;;;;33.40;39.33;99687.03;5072150;28;20093;-63
2023/07/11 16:00:43;;;;;;;;;;;;;;;33.43;39.22;99675.28;5072570;28;20497;-63
2023/07/11 16:03:21;;;;;;;12.43;6.95;;;;;;;33.45;39.41;99667.47;5071964;28;19923;-64
2023/07/11 16:05:48;;;;;;;11.20;6.70;;;;;;;33.37;39.23;99665.56;5072092;28;20444;-63